首页
METAR-TAF:

METAR-TAF

机场 :

Watertown, 紐約州, 美国

纬度: 43-59-31N, 经度: 076-01-18W, 海拔: 99米

当前天气观测

该预报发布于23分钟前的07:56 UTC
风速10节,风向西南
温度 2°C
湿度 93%
气压 1007 hPa
能見度: 12.9公里
阴天层高于1500英尺

METAR: KART 260756Z AUTO 23010KT 8SM OVC015 02/01 A2973 RMK AO2 RAE16 SLP070 P0000 T00220011

时间: 03:19 (08:19 UTC)

预报

该预报发布于2小时和39分钟前的05:40 UTC
预报有效从26日的 06点(UTC)到 27日的 06点(UTC)
风速10节,风向西南,有时为16节阵风
能見度: 4.8公里
阴天层高于600英尺
小雨, 轻雾
从 26日的 0700点(UTC)
风速8节,风向西南
能見度: 3.2公里
阴天层高于300英尺
小雪, 轻雾
从 26日的 1300点(UTC)
风速12节,风向西南,有时为18节阵风
能見度: 3.2公里
阴天层高于700英尺
小雪, 轻雾
从 26日的 2100点(UTC)
风速14节,风向西转西南
能見度: 6.4公里
阴天层高于700英尺
小雪
从 26日的 2200点(UTC)
风速14节,风向西转西南,有时为20节阵风
能見度: 4.8公里
阴天层高于1200英尺
小雪
从 27日的 0000点(UTC)
风速15节,风向西南,有时为23节阵风
能見度: 2.4公里
阴天层高于700英尺
小阵雪

TAF: KART 260540Z 2606/2706 23010G16KT 3SM -RA BR OVC006 FM260700 23008KT 2SM -SN BR OVC003 FM261300 23012G18KT 2SM -SN BR OVC007 FM262100 24014KT 4SM -SN OVC007 FM262200 24014G20KT 3SM -SN OVC012 FM270000 23015G23KT 1 1/2SM -SHSN OVC007

超过4000个机场的气象观测和天气预报(METAR&TAF报告)。

可查询的气象台以黄色和红色小点在地图上表示。

将鼠标移到小点上方,可查看气象台名称。

然后点击查看天气观测和预报。

如需切换地图:点击带黑十字的绿色按钮放大地图;点击带横线的绿色按钮缩小地图;或者点击绿色箭头查看邻近地区的地图。


METAR-TAF: